sensor_id;sensor_type;location;lat;lon;timestamp;temperature;humidity
15937;DHT22;9163;48.818;8.976;2022-08-01T00:00:39;21.00;99.90
15937;DHT22;9163;48.818;8.976;2022-08-01T00:03:06;21.00;99.90
15937;DHT22;9163;48.818;8.976;2022-08-01T00:05:34;21.00;99.90
15937;DHT22;9163;48.818;8.976;2022-08-01T00:08:03;21.00;99.90
15937;DHT22;9163;48.818;8.976;2022-08-01T00:10:30;20.90;99.90
15937;DHT22;9163;48.818;8.976;2022-08-01T00:12:58;20.90;99.90
15937;DHT22;9163;48.818;8.976;2022-08-01T00:15:25;20.90;99.90
15937;DHT22;9163;48.818;8.976;2022-08-01T00:17:52;20.90;99.90
15937;DHT22;9163;48.818;8.976;2022-08-01T00:20:20;20.90;99.90
15937;DHT22;9163;48.818;8.976;2022-08-01T00:22:47;20.90;99.90
15937;DHT22;9163;48.818;8.976;2022-08-01T00:25:16;20.80;99.90
15937;DHT22;9163;48.818;8.976;2022-08-01T00:27:43;20.80;99.90
15937;DHT22;9163;48.818;8.976;2022-08-01T00:30:11;20.80;99.90
15937;DHT22;9163;48.818;8.976;2022-08-01T00:32:38;20.80;99.90
15937;DHT22;9163;48.818;8.976;2022-08-01T00:35:06;20.70;99.90
15937;DHT22;9163;48.818;8.976;2022-08-01T00:37:33;20.70;99.90
15937;DHT22;9163;48.818;8.976;2022-08-01T00:40:00;20.70;99.90
15937;DHT22;9163;48.818;8.976;2022-08-01T00:42:29;20.70;99.90
15937;DHT22;9163;48.818;8.976;2022-08-01T00:44:57;20.70;99.90
15937;DHT22;9163;48.818;8.976;2022-08-01T00:47:24;20.60;99.90
15937;DHT22;9163;48.818;8.976;2022-08-01T00:49:51;20.60;99.90
15937;DHT22;9163;48.818;8.976;2022-08-01T00:52:19;20.60;99.90
15937;DHT22;9163;48.818;8.976;2022-08-01T00:54:46;20.60;99.90
15937;DHT22;9163;48.818;8.976;2022-08-01T00:57:14;20.60;99.90
15937;DHT22;9163;48.818;8.976;2022-08-01T00:59:43;20.50;99.90
15937;DHT22;9163;48.818;8.976;2022-08-01T01:02:10;20.50;99.90
15937;DHT22;9163;48.818;8.976;2022-08-01T01:04:37;20.50;99.90
15937;DHT22;9163;48.818;8.976;2022-08-01T01:07:09;20.50;99.90
15937;DHT22;9163;48.818;8.976;2022-08-01T01:09:49;20.50;99.90
15937;DHT22;9163;48.818;8.976;2022-08-01T01:12:24;20.50;99.90
15937;DHT22;9163;48.818;8.976;2022-08-01T01:15:01;20.40;99.90
15937;DHT22;9163;48.818;8.976;2022-08-01T01:17:48;20.40;99.90
15937;DHT22;9163;48.818;8.976;2022-08-01T01:20:16;20.30;99.90
15937;DHT22;9163;48.818;8.976;2022-08-01T01:22:53;20.30;99.90
15937;DHT22;9163;48.818;8.976;2022-08-01T01:25:39;20.30;99.90
15937;DHT22;9163;48.818;8.976;2022-08-01T01:28:12;20.30;99.90
15937;DHT22;9163;48.818;8.976;2022-08-01T01:30:45;20.20;99.90
15937;DHT22;9163;48.818;8.976;2022-08-01T01:33:14;20.20;99.90
15937;DHT22;9163;48.818;8.976;2022-08-01T01:35:47;20.10;99.90
15937;DHT22;9163;48.818;8.976;2022-08-01T01:38:18;20.10;99.90
15937;DHT22;9163;48.818;8.976;2022-08-01T01:40:48;20.00;99.90
15937;DHT22;9163;48.818;8.976;2022-08-01T01:43:17;20.00;99.90
15937;DHT22;9163;48.818;8.976;2022-08-01T01:45:47;19.90;99.90
15937;DHT22;9163;48.818;8.976;2022-08-01T01:48:18;19.90;99.90
15937;DHT22;9163;48.818;8.976;2022-08-01T01:50:47;19.90;99.90
15937;DHT22;9163;48.818;8.976;2022-08-01T01:53:17;19.90;99.90
15937;DHT22;9163;48.818;8.976;2022-08-01T01:55:47;19.90;99.90
15937;DHT22;9163;48.818;8.976;2022-08-01T01:58:16;19.80;99.90
15937;DHT22;9163;48.818;8.976;2022-08-01T02:00:47;19.70;99.90
15937;DHT22;9163;48.818;8.976;2022-08-01T02:03:16;19.70;99.90
15937;DHT22;9163;48.818;8.976;2022-08-01T02:05:45;19.60;99.90
15937;DHT22;9163;48.818;8.976;2022-08-01T02:08:15;19.60;99.90
15937;DHT22;9163;48.818;8.976;2022-08-01T02:10:44;19.60;99.90
15937;DHT22;9163;48.818;8.976;2022-08-01T02:13:34;19.60;99.90
15937;DHT22;9163;48.818;8.976;2022-08-01T02:16:05;19.50;99.90
15937;DHT22;9163;48.818;8.976;2022-08-01T02:18:33;19.50;99.90
15937;DHT22;9163;48.818;8.976;2022-08-01T02:21:00;19.40;99.90
15937;DHT22;9163;48.818;8.976;2022-08-01T02:23:32;19.40;99.90
15937;DHT22;9163;48.818;8.976;2022-08-01T02:26:02;19.40;99.90
15937;DHT22;9163;48.818;8.976;2022-08-01T02:28:36;19.40;99.90
15937;DHT22;9163;48.818;8.976;2022-08-01T02:31:10;19.30;99.90
15937;DHT22;9163;48.818;8.976;2022-08-01T02:33:40;19.20;99.90
15937;DHT22;9163;48.818;8.976;2022-08-01T02:36:09;19.20;99.90
15937;DHT22;9163;48.818;8.976;2022-08-01T02:38:41;19.10;99.90
15937;DHT22;9163;48.818;8.976;2022-08-01T02:41:12;19.00;99.90
15937;DHT22;9163;48.818;8.976;2022-08-01T02:43:43;19.00;99.90
15937;DHT22;9163;48.818;8.976;2022-08-01T02:46:22;19.00;99.90
15937;DHT22;9163;48.818;8.976;2022-08-01T02:48:52;19.00;99.90
15937;DHT22;9163;48.818;8.976;2022-08-01T02:51:22;18.90;99.90
15937;DHT22;9163;48.818;8.976;2022-08-01T02:53:50;18.90;99.90
15937;DHT22;9163;48.818;8.976;2022-08-01T02:56:19;18.90;99.90
15937;DHT22;9163;48.818;8.976;2022-08-01T02:58:47;18.80;99.90
15937;DHT22;9163;48.818;8.976;2022-08-01T03:01:18;18.80;99.90
15937;DHT22;9163;48.818;8.976;2022-08-01T03:03:46;18.80;99.90
15937;DHT22;9163;48.818;8.976;2022-08-01T03:06:14;18.80;99.90
15937;DHT22;9163;48.818;8.976;2022-08-01T03:08:43;18.70;99.90
15937;DHT22;9163;48.818;8.976;2022-08-01T03:11:12;18.70;99.90
15937;DHT22;9163;48.818;8.976;2022-08-01T03:13:41;18.60;99.90
15937;DHT22;9163;48.818;8.976;2022-08-01T03:16:10;18.50;99.90
15937;DHT22;9163;48.818;8.976;2022-08-01T03:18:41;18.50;99.90
15937;DHT22;9163;48.818;8.976;2022-08-01T03:21:12;18.50;99.90
15937;DHT22;9163;48.818;8.976;2022-08-01T03:23:41;18.40;99.90
15937;DHT22;9163;48.818;8.976;2022-08-01T03:26:09;18.40;99.90
15937;DHT22;9163;48.818;8.976;2022-08-01T03:28:38;18.40;99.90
15937;DHT22;9163;48.818;8.976;2022-08-01T03:31:07;18.40;99.90
15937;DHT22;9163;48.818;8.976;2022-08-01T03:33:36;18.30;99.90
15937;DHT22;9163;48.818;8.976;2022-08-01T03:36:05;18.30;99.90
15937;DHT22;9163;48.818;8.976;2022-08-01T03:38:37;18.30;99.90
15937;DHT22;9163;48.818;8.976;2022-08-01T03:41:09;18.30;99.90
15937;DHT22;9163;48.818;8.976;2022-08-01T03:43:40;18.20;99.90
15937;DHT22;9163;48.818;8.976;2022-08-01T03:46:13;18.20;99.90
15937;DHT22;9163;48.818;8.976;2022-08-01T03:48:47;18.20;99.90
15937;DHT22;9163;48.818;8.976;2022-08-01T03:51:18;18.20;99.90
15937;DHT22;9163;48.818;8.976;2022-08-01T03:53:47;18.20;99.90
15937;DHT22;9163;48.818;8.976;2022-08-01T03:56:18;18.20;99.90
15937;DHT22;9163;48.818;8.976;2022-08-01T03:58:46;18.20;99.90
15937;DHT22;9163;48.818;8.976;2022-08-01T04:01:15;18.20;99.90
15937;DHT22;9163;48.818;8.976;2022-08-01T04:03:43;18.20;99.90
15937;DHT22;9163;48.818;8.976;2022-08-01T04:06:11;18.20;99.90
15937;DHT22;9163;48.818;8.976;2022-08-01T04:08:41;18.20;99.90
15937;DHT22;9163;48.818;8.976;2022-08-01T04:11:09;18.20;99.90
15937;DHT22;9163;48.818;8.976;2022-08-01T04:13:36;18.30;99.90
15937;DHT22;9163;48.818;8.976;2022-08-01T04:16:04;18.30;99.90
15937;DHT22;9163;48.818;8.976;2022-08-01T04:18:32;18.30;99.90
15937;DHT22;9163;48.818;8.976;2022-08-01T04:21:00;18.40;99.90
15937;DHT22;9163;48.818;8.976;2022-08-01T04:23:27;18.40;99.90
15937;DHT22;9163;48.818;8.976;2022-08-01T04:25:59;18.40;99.90
15937;DHT22;9163;48.818;8.976;2022-08-01T04:28:30;18.50;99.90
15937;DHT22;9163;48.818;8.976;2022-08-01T04:30:59;18.50;99.90
15937;DHT22;9163;48.818;8.976;2022-08-01T04:33:28;18.60;99.90
15937;DHT22;9163;48.818;8.976;2022-08-01T04:35:58;18.60;99.90
15937;DHT22;9163;48.818;8.976;2022-08-01T04:38:26;18.70;99.90
15937;DHT22;9163;48.818;8.976;2022-08-01T04:40:56;18.70;99.90
15937;DHT22;9163;48.818;8.976;2022-08-01T04:43:25;18.70;99.90
15937;DHT22;9163;48.818;8.976;2022-08-01T04:45:54;18.70;99.90
15937;DHT22;9163;48.818;8.976;2022-08-01T04:48:23;18.60;99.90
15937;DHT22;9163;48.818;8.976;2022-08-01T04:50:51;18.50;99.90
15937;DHT22;9163;48.818;8.976;2022-08-01T04:53:20;18.50;99.90
15937;DHT22;9163;48.818;8.976;2022-08-01T04:55:48;18.40;99.90
15937;DHT22;9163;48.818;8.976;2022-08-01T04:58:16;18.40;99.90
15937;DHT22;9163;48.818;8.976;2022-08-01T05:00:45;18.30;99.90
15937;DHT22;9163;48.818;8.976;2022-08-01T05:03:12;18.20;99.90
15937;DHT22;9163;48.818;8.976;2022-08-01T05:05:40;18.10;99.90
15937;DHT22;9163;48.818;8.976;2022-08-01T05:08:07;18.10;99.90
15937;DHT22;9163;48.818;8.976;2022-08-01T05:10:34;18.20;99.90
15937;DHT22;9163;48.818;8.976;2022-08-01T05:13:03;18.30;99.90
15937;DHT22;9163;48.818;8.976;2022-08-01T05:15:32;18.30;99.90
15937;DHT22;9163;48.818;8.976;2022-08-01T05:18:01;18.40;99.90
15937;DHT22;9163;48.818;8.976;2022-08-01T05:20:28;18.50;99.90
15937;DHT22;9163;48.818;8.976;2022-08-01T05:22:55;18.60;99.90
15937;DHT22;9163;48.818;8.976;2022-08-01T05:25:23;18.70;99.90
15937;DHT22;9163;48.818;8.976;2022-08-01T05:27:50;18.70;99.90
15937;DHT22;9163;48.818;8.976;2022-08-01T05:30:18;18.80;99.90
15937;DHT22;9163;48.818;8.976;2022-08-01T05:32:45;19.00;99.90
15937;DHT22;9163;48.818;8.976;2022-08-01T05:35:14;19.20;99.90
15937;DHT22;9163;48.818;8.976;2022-08-01T05:37:41;19.30;99.90
15937;DHT22;9163;48.818;8.976;2022-08-01T05:40:10;19.50;99.90
15937;DHT22;9163;48.818;8.976;2022-08-01T05:42:37;19.60;99.90
15937;DHT22;9163;48.818;8.976;2022-08-01T05:45:05;19.90;99.90
15937;DHT22;9163;48.818;8.976;2022-08-01T05:47:33;19.90;99.90
15937;DHT22;9163;48.818;8.976;2022-08-01T05:50:00;20.00;99.90
15937;DHT22;9163;48.818;8.976;2022-08-01T05:52:29;20.20;99.90
15937;DHT22;9163;48.818;8.976;2022-08-01T05:54:56;20.40;99.90
15937;DHT22;9163;48.818;8.976;2022-08-01T05:57:24;20.50;99.90
15937;DHT22;9163;48.818;8.976;2022-08-01T05:59:51;20.70;99.90
15937;DHT22;9163;48.818;8.976;2022-08-01T06:02:18;20.90;99.90
15937;DHT22;9163;48.818;8.976;2022-08-01T06:04:46;20.90;99.90
15937;DHT22;9163;48.818;8.976;2022-08-01T06:07:13;20.80;99.90
15937;DHT22;9163;48.818;8.976;2022-08-01T06:09:42;20.70;99.90
15937;DHT22;9163;48.818;8.976;2022-08-01T06:12:09;20.80;99.90
15937;DHT22;9163;48.818;8.976;2022-08-01T06:14:37;20.80;99.90
15937;DHT22;9163;48.818;8.976;2022-08-01T06:17:04;21.00;99.90
15937;DHT22;9163;48.818;8.976;2022-08-01T06:19:32;21.00;99.90
15937;DHT22;9163;48.818;8.976;2022-08-01T06:21:59;21.30;99.90
15937;DHT22;9163;48.818;8.976;2022-08-01T06:24:27;21.40;99.90
15937;DHT22;9163;48.818;8.976;2022-08-01T06:26:55;21.60;99.90
15937;DHT22;9163;48.818;8.976;2022-08-01T06:29:23;21.70;99.90
15937;DHT22;9163;48.818;8.976;2022-08-01T06:31:50;21.90;99.90
15937;DHT22;9163;48.818;8.976;2022-08-01T06:34:17;21.90;99.90
15937;DHT22;9163;48.818;8.976;2022-08-01T06:36:45;21.90;99.90
15937;DHT22;9163;48.818;8.976;2022-08-01T06:39:12;22.10;99.90
15937;DHT22;9163;48.818;8.976;2022-08-01T06:41:39;22.20;99.90
15937;DHT22;9163;48.818;8.976;2022-08-01T06:44:09;22.50;99.90
15937;DHT22;9163;48.818;8.976;2022-08-01T06:46:37;22.50;99.90
15937;DHT22;9163;48.818;8.976;2022-08-01T06:49:04;22.60;99.90
15937;DHT22;9163;48.818;8.976;2022-08-01T06:51:32;22.30;99.90
15937;DHT22;9163;48.818;8.976;2022-08-01T06:53:59;22.50;99.90
15937;DHT22;9163;48.818;8.976;2022-08-01T06:56:26;22.50;99.90
15937;DHT22;9163;48.818;8.976;2022-08-01T06:58:54;22.60;99.90
15937;DHT22;9163;48.818;8.976;2022-08-01T07:01:28;22.70;99.90
15937;DHT22;9163;48.818;8.976;2022-08-01T07:03:55;22.70;99.90
15937;DHT22;9163;48.818;8.976;2022-08-01T07:06:23;22.90;99.90
15937;DHT22;9163;48.818;8.976;2022-08-01T07:08:51;23.10;99.90
15937;DHT22;9163;48.818;8.976;2022-08-01T07:11:19;22.90;99.90
15937;DHT22;9163;48.818;8.976;2022-08-01T07:13:46;23.00;99.90
15937;DHT22;9163;48.818;8.976;2022-08-01T07:16:15;23.10;99.90
15937;DHT22;9163;48.818;8.976;2022-08-01T07:18:44;23.40;99.90
15937;DHT22;9163;48.818;8.976;2022-08-01T07:21:12;23.60;99.90
15937;DHT22;9163;48.818;8.976;2022-08-01T07:23:39;23.70;99.90
15937;DHT22;9163;48.818;8.976;2022-08-01T07:26:06;24.20;99.90
15937;DHT22;9163;48.818;8.976;2022-08-01T07:28:34;24.30;99.90
15937;DHT22;9163;48.818;8.976;2022-08-01T07:31:01;24.30;99.90
15937;DHT22;9163;48.818;8.976;2022-08-01T07:33:28;23.80;99.90
15937;DHT22;9163;48.818;8.976;2022-08-01T07:35:57;23.90;99.90
15937;DHT22;9163;48.818;8.976;2022-08-01T07:38:25;23.90;99.90
15937;DHT22;9163;48.818;8.976;2022-08-01T07:40:55;23.90;99.90
15937;DHT22;9163;48.818;8.976;2022-08-01T07:43:23;24.00;99.90
15937;DHT22;9163;48.818;8.976;2022-08-01T07:45:50;24.30;99.90
15937;DHT22;9163;48.818;8.976;2022-08-01T07:48:18;24.20;99.90
15937;DHT22;9163;48.818;8.976;2022-08-01T07:50:46;24.00;99.90
15937;DHT22;9163;48.818;8.976;2022-08-01T07:53:16;24.30;99.90
15937;DHT22;9163;48.818;8.976;2022-08-01T07:55:43;24.50;99.90
15937;DHT22;9163;48.818;8.976;2022-08-01T07:58:12;25.20;99.90
15937;DHT22;9163;48.818;8.976;2022-08-01T08:00:39;25.70;99.90
15937;DHT22;9163;48.818;8.976;2022-08-01T08:03:07;25.90;99.90
15937;DHT22;9163;48.818;8.976;2022-08-01T08:05:34;25.70;99.90
15937;DHT22;9163;48.818;8.976;2022-08-01T08:08:02;26.00;99.90
15937;DHT22;9163;48.818;8.976;2022-08-01T08:10:34;25.80;99.90
15937;DHT22;9163;48.818;8.976;2022-08-01T08:13:01;25.80;99.90
15937;DHT22;9163;48.818;8.976;2022-08-01T08:15:29;25.70;99.90
15937;DHT22;9163;48.818;8.976;2022-08-01T08:17:56;25.70;99.90
15937;DHT22;9163;48.818;8.976;2022-08-01T08:20:24;25.20;99.90
15937;DHT22;9163;48.818;8.976;2022-08-01T08:22:53;25.10;99.90
15937;DHT22;9163;48.818;8.976;2022-08-01T08:25:20;25.40;99.90
15937;DHT22;9163;48.818;8.976;2022-08-01T08:27:50;25.70;99.90
15937;DHT22;9163;48.818;8.976;2022-08-01T08:30:18;25.40;99.90
15937;DHT22;9163;48.818;8.976;2022-08-01T08:32:46;25.50;99.90
15937;DHT22;9163;48.818;8.976;2022-08-01T08:35:13;25.80;99.90
15937;DHT22;9163;48.818;8.976;2022-08-01T08:37:41;26.40;99.90
15937;DHT22;9163;48.818;8.976;2022-08-01T08:40:10;26.70;99.90
15937;DHT22;9163;48.818;8.976;2022-08-01T08:42:40;27.10;99.90
15937;DHT22;9163;48.818;8.976;2022-08-01T08:45:10;27.40;99.90
15937;DHT22;9163;48.818;8.976;2022-08-01T08:47:37;27.60;99.90
15937;DHT22;9163;48.818;8.976;2022-08-01T08:50:06;26.90;99.90
15937;DHT22;9163;48.818;8.976;2022-08-01T08:52:35;26.80;99.90
15937;DHT22;9163;48.818;8.976;2022-08-01T08:55:06;26.70;99.90
15937;DHT22;9163;48.818;8.976;2022-08-01T08:57:39;27.00;99.90
15937;DHT22;9163;48.818;8.976;2022-08-01T09:00:09;27.50;99.90
15937;DHT22;9163;48.818;8.976;2022-08-01T09:02:41;27.60;99.90
15937;DHT22;9163;48.818;8.976;2022-08-01T09:05:08;27.40;99.90
15937;DHT22;9163;48.818;8.976;2022-08-01T09:07:36;27.70;99.90
15937;DHT22;9163;48.818;8.976;2022-08-01T09:10:05;28.40;99.90
15937;DHT22;9163;48.818;8.976;2022-08-01T09:12:33;28.50;99.90
15937;DHT22;9163;48.818;8.976;2022-08-01T09:15:00;28.50;99.90
15937;DHT22;9163;48.818;8.976;2022-08-01T09:17:39;28.30;99.90
15937;DHT22;9163;48.818;8.976;2022-08-01T09:20:07;28.80;99.90
15937;DHT22;9163;48.818;8.976;2022-08-01T09:22:49;28.50;99.90
15937;DHT22;9163;48.818;8.976;2022-08-01T09:25:18;28.10;99.90
15937;DHT22;9163;48.818;8.976;2022-08-01T09:27:46;27.80;99.90
15937;DHT22;9163;48.818;8.976;2022-08-01T09:30:15;28.40;99.90
15937;DHT22;9163;48.818;8.976;2022-08-01T09:32:58;28.70;99.90
15937;DHT22;9163;48.818;8.976;2022-08-01T09:35:28;28.70;99.90
15937;DHT22;9163;48.818;8.976;2022-08-01T09:38:17;28.30;99.90
15937;DHT22;9163;48.818;8.976;2022-08-01T09:40:47;28.60;99.90
15937;DHT22;9163;48.818;8.976;2022-08-01T09:43:18;28.80;99.90
15937;DHT22;9163;48.818;8.976;2022-08-01T09:45:47;28.80;99.90
15937;DHT22;9163;48.818;8.976;2022-08-01T09:48:16;28.80;99.90
15937;DHT22;9163;48.818;8.976;2022-08-01T09:50:45;28.40;99.90
15937;DHT22;9163;48.818;8.976;2022-08-01T09:53:13;29.00;99.90
15937;DHT22;9163;48.818;8.976;2022-08-01T09:55:41;28.50;99.90
15937;DHT22;9163;48.818;8.976;2022-08-01T09:58:09;28.60;99.90
15937;DHT22;9163;48.818;8.976;2022-08-01T10:00:38;28.60;99.90
15937;DHT22;9163;48.818;8.976;2022-08-01T10:03:22;28.40;99.90
15937;DHT22;9163;48.818;8.976;2022-08-01T10:05:50;28.70;99.90
15937;DHT22;9163;48.818;8.976;2022-08-01T10:08:19;28.70;99.90
15937;DHT22;9163;48.818;8.976;2022-08-01T10:11:06;29.00;99.90
15937;DHT22;9163;48.818;8.976;2022-08-01T10:13:34;29.10;99.90
15937;DHT22;9163;48.818;8.976;2022-08-01T10:16:02;29.50;99.90
15937;DHT22;9163;48.818;8.976;2022-08-01T10:18:33;29.10;99.90
15937;DHT22;9163;48.818;8.976;2022-08-01T10:21:02;29.30;99.90
15937;DHT22;9163;48.818;8.976;2022-08-01T10:23:34;29.10;99.90
15937;DHT22;9163;48.818;8.976;2022-08-01T10:26:02;29.00;99.90
15937;DHT22;9163;48.818;8.976;2022-08-01T10:28:32;28.40;99.90
15937;DHT22;9163;48.818;8.976;2022-08-01T10:31:01;29.10;99.90
15937;DHT22;9163;48.818;8.976;2022-08-01T10:33:29;29.80;99.90
15937;DHT22;9163;48.818;8.976;2022-08-01T10:35:58;29.40;99.90
15937;DHT22;9163;48.818;8.976;2022-08-01T10:38:27;29.70;99.90
15937;DHT22;9163;48.818;8.976;2022-08-01T10:40:56;30.10;99.90
15937;DHT22;9163;48.818;8.976;2022-08-01T10:43:24;30.70;99.90
15937;DHT22;9163;48.818;8.976;2022-08-01T10:45:51;30.90;99.90
15937;DHT22;9163;48.818;8.976;2022-08-01T10:48:22;30.30;99.90
15937;DHT22;9163;48.818;8.976;2022-08-01T10:50:52;29.80;99.90
15937;DHT22;9163;48.818;8.976;2022-08-01T10:53:23;29.30;99.90
15937;DHT22;9163;48.818;8.976;2022-08-01T10:55:56;29.40;99.90
15937;DHT22;9163;48.818;8.976;2022-08-01T10:58:28;29.10;99.90
15937;DHT22;9163;48.818;8.976;2022-08-01T11:01:15;29.60;99.90
15937;DHT22;9163;48.818;8.976;2022-08-01T11:03:44;29.60;99.90
15937;DHT22;9163;48.818;8.976;2022-08-01T11:06:16;29.40;99.90
15937;DHT22;9163;48.818;8.976;2022-08-01T11:08:52;28.60;99.90
15937;DHT22;9163;48.818;8.976;2022-08-01T11:11:20;29.10;99.90
15937;DHT22;9163;48.818;8.976;2022-08-01T11:14:01;29.50;99.90
15937;DHT22;9163;48.818;8.976;2022-08-01T11:16:34;29.90;99.90
15937;DHT22;9163;48.818;8.976;2022-08-01T11:19:03;29.90;99.90
15937;DHT22;9163;48.818;8.976;2022-08-01T11:21:58;29.60;99.90
15937;DHT22;9163;48.818;8.976;2022-08-01T11:24:56;29.30;99.90
15937;DHT22;9163;48.818;8.976;2022-08-01T11:27:25;29.30;99.90
15937;DHT22;9163;48.818;8.976;2022-08-01T11:30:24;30.30;99.90
15937;DHT22;9163;48.818;8.976;2022-08-01T11:32:56;31.00;99.90
15937;DHT22;9163;48.818;8.976;2022-08-01T11:35:24;31.40;99.90
15937;DHT22;9163;48.818;8.976;2022-08-01T11:37:53;32.20;99.90
15937;DHT22;9163;48.818;8.976;2022-08-01T11:40:25;32.20;99.90
15937;DHT22;9163;48.818;8.976;2022-08-01T11:43:17;31.20;99.90
15937;DHT22;9163;48.818;8.976;2022-08-01T11:45:51;30.70;99.90
15937;DHT22;9163;48.818;8.976;2022-08-01T11:48:21;30.90;99.90
15937;DHT22;9163;48.818;8.976;2022-08-01T11:50:50;31.10;99.90
15937;DHT22;9163;48.818;8.976;2022-08-01T11:53:18;31.30;99.90
15937;DHT22;9163;48.818;8.976;2022-08-01T11:55:49;30.40;99.90
15937;DHT22;9163;48.818;8.976;2022-08-01T11:58:21;30.60;99.90
15937;DHT22;9163;48.818;8.976;2022-08-01T12:00:55;30.70;99.90
15937;DHT22;9163;48.818;8.976;2022-08-01T12:03:25;30.90;99.90
15937;DHT22;9163;48.818;8.976;2022-08-01T12:05:53;30.90;99.90
15937;DHT22;9163;48.818;8.976;2022-08-01T12:08:25;31.00;99.90
15937;DHT22;9163;48.818;8.976;2022-08-01T12:10:55;31.10;99.90
15937;DHT22;9163;48.818;8.976;2022-08-01T12:13:39;31.80;99.90
15937;DHT22;9163;48.818;8.976;2022-08-01T12:16:08;32.60;99.90
15937;DHT22;9163;48.818;8.976;2022-08-01T12:18:38;31.70;99.90
15937;DHT22;9163;48.818;8.976;2022-08-01T12:21:05;31.30;99.90
15937;DHT22;9163;48.818;8.976;2022-08-01T12:23:33;30.30;99.90
15937;DHT22;9163;48.818;8.976;2022-08-01T12:26:02;30.40;99.90
15937;DHT22;9163;48.818;8.976;2022-08-01T12:28:30;30.90;99.90
15937;DHT22;9163;48.818;8.976;2022-08-01T12:30:57;31.30;99.90
15937;DHT22;9163;48.818;8.976;2022-08-01T12:33:25;31.20;99.90
15937;DHT22;9163;48.818;8.976;2022-08-01T12:35:53;31.20;99.90
15937;DHT22;9163;48.818;8.976;2022-08-01T12:38:22;30.60;99.90
15937;DHT22;9163;48.818;8.976;2022-08-01T12:40:52;30.40;99.90
15937;DHT22;9163;48.818;8.976;2022-08-01T12:43:22;30.40;99.90
15937;DHT22;9163;48.818;8.976;2022-08-01T12:45:52;30.60;99.90
15937;DHT22;9163;48.818;8.976;2022-08-01T12:48:20;31.20;99.90
15937;DHT22;9163;48.818;8.976;2022-08-01T12:50:48;31.00;99.90
15937;DHT22;9163;48.818;8.976;2022-08-01T12:53:16;31.00;99.90
15937;DHT22;9163;48.818;8.976;2022-08-01T12:55:45;30.70;99.90
15937;DHT22;9163;48.818;8.976;2022-08-01T12:58:14;31.10;99.90
15937;DHT22;9163;48.818;8.976;2022-08-01T13:00:45;30.70;99.90
15937;DHT22;9163;48.818;8.976;2022-08-01T13:03:14;30.40;99.90
15937;DHT22;9163;48.818;8.976;2022-08-01T13:05:43;30.80;99.90
15937;DHT22;9163;48.818;8.976;2022-08-01T13:08:11;31.10;99.90
15937;DHT22;9163;48.818;8.976;2022-08-01T13:10:40;30.80;99.90
15937;DHT22;9163;48.818;8.976;2022-08-01T13:13:08;31.00;99.90
15937;DHT22;9163;48.818;8.976;2022-08-01T13:15:37;31.30;99.90
15937;DHT22;9163;48.818;8.976;2022-08-01T13:18:25;32.20;99.90
15937;DHT22;9163;48.818;8.976;2022-08-01T13:21:07;33.10;99.90
15937;DHT22;9163;48.818;8.976;2022-08-01T13:23:35;33.40;99.90
15937;DHT22;9163;48.818;8.976;2022-08-01T13:26:03;32.40;99.90
15937;DHT22;9163;48.818;8.976;2022-08-01T13:28:31;31.30;99.90
15937;DHT22;9163;48.818;8.976;2022-08-01T13:31:02;31.30;99.90
15937;DHT22;9163;48.818;8.976;2022-08-01T13:33:42;30.80;99.90
15937;DHT22;9163;48.818;8.976;2022-08-01T13:36:11;30.50;99.90
15937;DHT22;9163;48.818;8.976;2022-08-01T13:38:39;30.80;99.90
15937;DHT22;9163;48.818;8.976;2022-08-01T13:41:24;31.20;99.90
15937;DHT22;9163;48.818;8.976;2022-08-01T13:43:52;30.80;99.90
15937;DHT22;9163;48.818;8.976;2022-08-01T13:46:20;31.00;99.90
15937;DHT22;9163;48.818;8.976;2022-08-01T13:48:49;30.80;99.90
15937;DHT22;9163;48.818;8.976;2022-08-01T13:51:17;31.10;99.90
15937;DHT22;9163;48.818;8.976;2022-08-01T13:53:44;31.20;99.90
15937;DHT22;9163;48.818;8.976;2022-08-01T13:56:12;31.50;99.90
15937;DHT22;9163;48.818;8.976;2022-08-01T13:58:39;31.20;99.90
15937;DHT22;9163;48.818;8.976;2022-08-01T14:01:06;31.30;99.90
15937;DHT22;9163;48.818;8.976;2022-08-01T14:03:34;31.30;99.90
15937;DHT22;9163;48.818;8.976;2022-08-01T14:06:03;31.80;99.90
15937;DHT22;9163;48.818;8.976;2022-08-01T14:08:30;31.60;99.90
15937;DHT22;9163;48.818;8.976;2022-08-01T14:10:58;31.50;99.90
15937;DHT22;9163;48.818;8.976;2022-08-01T14:13:26;32.10;99.90
15937;DHT22;9163;48.818;8.976;2022-08-01T14:15:54;32.10;99.90
15937;DHT22;9163;48.818;8.976;2022-08-01T14:18:21;32.10;99.90
15937;DHT22;9163;48.818;8.976;2022-08-01T14:20:48;31.70;99.90
15937;DHT22;9163;48.818;8.976;2022-08-01T14:23:17;31.40;99.90
15937;DHT22;9163;48.818;8.976;2022-08-01T14:25:45;31.30;99.90
15937;DHT22;9163;48.818;8.976;2022-08-01T14:28:12;31.30;99.90
15937;DHT22;9163;48.818;8.976;2022-08-01T14:30:42;30.80;99.90
15937;DHT22;9163;48.818;8.976;2022-08-01T14:33:09;30.80;99.90
15937;DHT22;9163;48.818;8.976;2022-08-01T14:35:37;30.50;99.90
15937;DHT22;9163;48.818;8.976;2022-08-01T14:38:04;30.60;99.90
15937;DHT22;9163;48.818;8.976;2022-08-01T14:40:33;31.10;99.90
15937;DHT22;9163;48.818;8.976;2022-08-01T14:43:01;30.90;99.90
15937;DHT22;9163;48.818;8.976;2022-08-01T14:45:28;30.00;99.90
15937;DHT22;9163;48.818;8.976;2022-08-01T14:47:55;29.80;99.90
15937;DHT22;9163;48.818;8.976;2022-08-01T14:50:23;29.60;99.90
15937;DHT22;9163;48.818;8.976;2022-08-01T14:52:52;29.50;99.90
15937;DHT22;9163;48.818;8.976;2022-08-01T14:55:19;29.20;99.90
15937;DHT22;9163;48.818;8.976;2022-08-01T14:57:53;29.20;99.90
15937;DHT22;9163;48.818;8.976;2022-08-01T15:00:20;29.30;99.90
15937;DHT22;9163;48.818;8.976;2022-08-01T15:02:48;29.60;99.90
15937;DHT22;9163;48.818;8.976;2022-08-01T15:05:15;30.00;99.90
15937;DHT22;9163;48.818;8.976;2022-08-01T15:07:43;30.50;99.90
15937;DHT22;9163;48.818;8.976;2022-08-01T15:10:11;30.90;99.90
15937;DHT22;9163;48.818;8.976;2022-08-01T15:12:38;30.60;99.90
15937;DHT22;9163;48.818;8.976;2022-08-01T15:15:08;30.30;99.90
15937;DHT22;9163;48.818;8.976;2022-08-01T15:17:36;30.20;99.90
15937;DHT22;9163;48.818;8.976;2022-08-01T15:20:07;29.60;99.90
15937;DHT22;9163;48.818;8.976;2022-08-01T15:22:34;29.20;99.90
15937;DHT22;9163;48.818;8.976;2022-08-01T15:25:03;28.70;99.90
15937;DHT22;9163;48.818;8.976;2022-08-01T15:27:30;28.60;99.90
15937;DHT22;9163;48.818;8.976;2022-08-01T15:29:58;28.70;99.90
15937;DHT22;9163;48.818;8.976;2022-08-01T15:32:27;28.70;99.90
15937;DHT22;9163;48.818;8.976;2022-08-01T15:34:54;28.70;99.90
15937;DHT22;9163;48.818;8.976;2022-08-01T15:37:22;28.70;99.90
15937;DHT22;9163;48.818;8.976;2022-08-01T15:39:49;28.50;99.90
15937;DHT22;9163;48.818;8.976;2022-08-01T15:42:17;28.70;99.90
15937;DHT22;9163;48.818;8.976;2022-08-01T15:44:45;28.60;99.90
15937;DHT22;9163;48.818;8.976;2022-08-01T15:47:12;28.60;99.90
15937;DHT22;9163;48.818;8.976;2022-08-01T15:49:41;28.40;99.90
15937;DHT22;9163;48.818;8.976;2022-08-01T15:52:09;28.20;99.90
15937;DHT22;9163;48.818;8.976;2022-08-01T15:54:37;28.10;99.90
15937;DHT22;9163;48.818;8.976;2022-08-01T15:57:06;28.30;99.90
15937;DHT22;9163;48.818;8.976;2022-08-01T15:59:34;28.10;99.90